sensor_id;sensor_type;location;lat;lon;timestamp;temperature;humidity
46730;DHT22;32476;50.002;11.854;2023-08-07T00:01:16;10.20;99.90
46730;DHT22;32476;50.002;11.854;2023-08-07T00:03:42;10.20;99.90
46730;DHT22;32476;50.002;11.854;2023-08-07T00:06:08;10.20;99.90
46730;DHT22;32476;50.002;11.854;2023-08-07T00:08:36;10.20;99.90
46730;DHT22;32476;50.002;11.854;2023-08-07T00:11:10;10.20;99.90
46730;DHT22;32476;50.002;11.854;2023-08-07T00:13:38;10.20;99.90
46730;DHT22;32476;50.002;11.854;2023-08-07T00:16:04;10.20;99.90
46730;DHT22;32476;50.002;11.854;2023-08-07T00:18:30;10.20;99.90
46730;DHT22;32476;50.002;11.854;2023-08-07T00:20:58;10.20;99.90
46730;DHT22;32476;50.002;11.854;2023-08-07T00:23:24;10.20;99.90
46730;DHT22;32476;50.002;11.854;2023-08-07T00:25:50;10.20;99.90
46730;DHT22;32476;50.002;11.854;2023-08-07T00:28:17;10.20;99.90
46730;DHT22;32476;50.002;11.854;2023-08-07T00:30:43;10.20;99.90
46730;DHT22;32476;50.002;11.854;2023-08-07T00:33:09;10.20;99.90
46730;DHT22;32476;50.002;11.854;2023-08-07T00:35:36;10.20;99.90
46730;DHT22;32476;50.002;11.854;2023-08-07T00:38:02;10.20;99.90
46730;DHT22;32476;50.002;11.854;2023-08-07T00:40:36;10.20;99.90
46730;DHT22;32476;50.002;11.854;2023-08-07T00:43:04;10.20;99.90
46730;DHT22;32476;50.002;11.854;2023-08-07T00:45:38;10.20;99.90
46730;DHT22;32476;50.002;11.854;2023-08-07T00:48:09;10.20;99.90
46730;DHT22;32476;50.002;11.854;2023-08-07T00:50:36;10.20;99.90
46730;DHT22;32476;50.002;11.854;2023-08-07T00:53:02;10.20;99.90
46730;DHT22;32476;50.002;11.854;2023-08-07T00:55:30;10.20;99.90
46730;DHT22;32476;50.002;11.854;2023-08-07T00:57:57;10.20;99.90
46730;DHT22;32476;50.002;11.854;2023-08-07T01:00:24;10.20;99.90
46730;DHT22;32476;50.002;11.854;2023-08-07T01:02:54;10.20;99.90
46730;DHT22;32476;50.002;11.854;2023-08-07T01:05:24;10.10;99.90
46730;DHT22;32476;50.002;11.854;2023-08-07T01:07:55;10.10;99.90
46730;DHT22;32476;50.002;11.854;2023-08-07T01:16:52;10.20;99.90
46730;DHT22;32476;50.002;11.854;2023-08-07T01:19:25;10.20;99.90
46730;DHT22;32476;50.002;11.854;2023-08-07T01:22:12;10.20;99.90
46730;DHT22;32476;50.002;11.854;2023-08-07T01:24:48;10.10;99.90
46730;DHT22;32476;50.002;11.854;2023-08-07T01:32:57;10.20;99.90
46730;DHT22;32476;50.002;11.854;2023-08-07T01:35:29;10.20;99.90
46730;DHT22;32476;50.002;11.854;2023-08-07T01:37:57;10.20;99.90
46730;DHT22;32476;50.002;11.854;2023-08-07T01:40:27;10.20;99.90
46730;DHT22;32476;50.002;11.854;2023-08-07T01:42:54;10.20;99.90
46730;DHT22;32476;50.002;11.854;2023-08-07T01:45:28;10.20;99.90
46730;DHT22;32476;50.002;11.854;2023-08-07T01:47:56;10.20;99.90
46730;DHT22;32476;50.002;11.854;2023-08-07T01:50:23;10.20;99.90
46730;DHT22;32476;50.002;11.854;2023-08-07T01:52:50;10.20;99.90
46730;DHT22;32476;50.002;11.854;2023-08-07T01:55:19;10.20;99.90
46730;DHT22;32476;50.002;11.854;2023-08-07T01:57:45;10.20;99.90
46730;DHT22;32476;50.002;11.854;2023-08-07T02:00:11;10.20;99.90
46730;DHT22;32476;50.002;11.854;2023-08-07T02:02:39;10.30;99.90
46730;DHT22;32476;50.002;11.854;2023-08-07T02:05:05;10.20;99.90
46730;DHT22;32476;50.002;11.854;2023-08-07T02:07:31;10.30;99.90
46730;DHT22;32476;50.002;11.854;2023-08-07T02:09:59;10.20;99.90
46730;DHT22;32476;50.002;11.854;2023-08-07T02:12:25;10.30;99.90
46730;DHT22;32476;50.002;11.854;2023-08-07T02:14:52;10.30;99.90
46730;DHT22;32476;50.002;11.854;2023-08-07T02:17:21;10.30;99.90
46730;DHT22;32476;50.002;11.854;2023-08-07T02:19:48;10.30;99.90
46730;DHT22;32476;50.002;11.854;2023-08-07T02:22:14;10.30;99.90
46730;DHT22;32476;50.002;11.854;2023-08-07T02:24:41;10.30;99.90
46730;DHT22;32476;50.002;11.854;2023-08-07T02:27:07;10.30;99.90
46730;DHT22;32476;50.002;11.854;2023-08-07T02:29:33;10.40;99.90
46730;DHT22;32476;50.002;11.854;2023-08-07T02:32:03;10.30;99.90
46730;DHT22;32476;50.002;11.854;2023-08-07T02:34:30;10.40;99.90
46730;DHT22;32476;50.002;11.854;2023-08-07T02:36:57;10.40;99.90
46730;DHT22;32476;50.002;11.854;2023-08-07T02:39:25;10.40;99.90
46730;DHT22;32476;50.002;11.854;2023-08-07T02:41:51;10.40;99.90
46730;DHT22;32476;50.002;11.854;2023-08-07T02:44:17;10.30;99.90
46730;DHT22;32476;50.002;11.854;2023-08-07T02:46:45;10.40;99.90
46730;DHT22;32476;50.002;11.854;2023-08-07T02:49:11;10.40;99.90
46730;DHT22;32476;50.002;11.854;2023-08-07T02:51:37;10.30;99.90
46730;DHT22;32476;50.002;11.854;2023-08-07T02:54:05;10.30;99.90
46730;DHT22;32476;50.002;11.854;2023-08-07T02:56:32;10.30;99.90
46730;DHT22;32476;50.002;11.854;2023-08-07T02:58:58;10.30;99.90
46730;DHT22;32476;50.002;11.854;2023-08-07T03:01:26;10.30;99.90
46730;DHT22;32476;50.002;11.854;2023-08-07T03:03:53;10.30;99.90
46730;DHT22;32476;50.002;11.854;2023-08-07T03:06:19;10.30;99.90
46730;DHT22;32476;50.002;11.854;2023-08-07T03:08:46;10.30;99.90
46730;DHT22;32476;50.002;11.854;2023-08-07T03:11:12;10.30;99.90
46730;DHT22;32476;50.002;11.854;2023-08-07T03:13:38;10.20;99.90
46730;DHT22;32476;50.002;11.854;2023-08-07T03:16:06;10.20;99.90
46730;DHT22;32476;50.002;11.854;2023-08-07T03:18:33;10.20;99.90
46730;DHT22;32476;50.002;11.854;2023-08-07T03:21:00;10.20;99.90
46730;DHT22;32476;50.002;11.854;2023-08-07T03:23:28;10.10;99.90
46730;DHT22;32476;50.002;11.854;2023-08-07T03:26:08;10.10;99.90
46730;DHT22;32476;50.002;11.854;2023-08-07T03:28:38;10.10;99.90
46730;DHT22;32476;50.002;11.854;2023-08-07T03:31:05;10.10;99.90
46730;DHT22;32476;50.002;11.854;2023-08-07T03:33:31;10.10;99.90
46730;DHT22;32476;50.002;11.854;2023-08-07T03:35:59;10.10;99.90
46730;DHT22;32476;50.002;11.854;2023-08-07T03:38:24;10.10;99.90
46730;DHT22;32476;50.002;11.854;2023-08-07T03:40:51;10.10;99.90
46730;DHT22;32476;50.002;11.854;2023-08-07T03:43:18;10.10;99.90
46730;DHT22;32476;50.002;11.854;2023-08-07T03:45:44;10.10;99.90
46730;DHT22;32476;50.002;11.854;2023-08-07T03:48:10;10.10;99.90
46730;DHT22;32476;50.002;11.854;2023-08-07T03:50:37;10.10;99.90
46730;DHT22;32476;50.002;11.854;2023-08-07T03:53:04;10.00;99.90
46730;DHT22;32476;50.002;11.854;2023-08-07T03:55:32;10.00;99.90
46730;DHT22;32476;50.002;11.854;2023-08-07T03:58:01;10.00;99.90
46730;DHT22;32476;50.002;11.854;2023-08-07T04:00:27;10.00;99.90
46730;DHT22;32476;50.002;11.854;2023-08-07T04:02:53;9.90;99.90
46730;DHT22;32476;50.002;11.854;2023-08-07T04:05:20;9.90;99.90
46730;DHT22;32476;50.002;11.854;2023-08-07T04:07:46;9.90;99.90
46730;DHT22;32476;50.002;11.854;2023-08-07T04:10:12;9.90;99.90
46730;DHT22;32476;50.002;11.854;2023-08-07T04:12:40;9.90;99.90
46730;DHT22;32476;50.002;11.854;2023-08-07T04:15:07;9.90;99.90
46730;DHT22;32476;50.002;11.854;2023-08-07T04:17:34;9.90;99.90
46730;DHT22;32476;50.002;11.854;2023-08-07T04:20:02;9.90;99.90
46730;DHT22;32476;50.002;11.854;2023-08-07T04:22:29;9.90;99.90
46730;DHT22;32476;50.002;11.854;2023-08-07T04:24:55;9.90;99.90
46730;DHT22;32476;50.002;11.854;2023-08-07T04:27:23;9.90;99.90
46730;DHT22;32476;50.002;11.854;2023-08-07T04:29:49;9.90;99.90
46730;DHT22;32476;50.002;11.854;2023-08-07T04:32:15;9.90;99.90
46730;DHT22;32476;50.002;11.854;2023-08-07T04:34:42;9.90;99.90
46730;DHT22;32476;50.002;11.854;2023-08-07T04:37:08;9.90;99.90
46730;DHT22;32476;50.002;11.854;2023-08-07T04:39:35;9.90;99.90
46730;DHT22;32476;50.002;11.854;2023-08-07T04:42:04;9.90;99.90
46730;DHT22;32476;50.002;11.854;2023-08-07T04:44:30;9.90;99.90
46730;DHT22;32476;50.002;11.854;2023-08-07T04:46:56;9.90;99.90
46730;DHT22;32476;50.002;11.854;2023-08-07T04:49:23;9.90;99.90
46730;DHT22;32476;50.002;11.854;2023-08-07T04:51:49;9.90;99.90
46730;DHT22;32476;50.002;11.854;2023-08-07T04:54:15;9.90;99.90
46730;DHT22;32476;50.002;11.854;2023-08-07T04:56:42;9.90;99.90
46730;DHT22;32476;50.002;11.854;2023-08-07T04:59:10;9.90;99.90
46730;DHT22;32476;50.002;11.854;2023-08-07T05:01:36;9.80;99.90
46730;DHT22;32476;50.002;11.854;2023-08-07T05:04:04;9.80;99.90
46730;DHT22;32476;50.002;11.854;2023-08-07T05:06:31;9.80;99.90
46730;DHT22;32476;50.002;11.854;2023-08-07T05:08:57;9.80;99.90
46730;DHT22;32476;50.002;11.854;2023-08-07T05:11:24;9.80;99.90
46730;DHT22;32476;50.002;11.854;2023-08-07T05:13:50;9.80;99.90
46730;DHT22;32476;50.002;11.854;2023-08-07T05:16:16;9.70;99.90
46730;DHT22;32476;50.002;11.854;2023-08-07T05:18:45;9.70;99.90
46730;DHT22;32476;50.002;11.854;2023-08-07T05:21:12;9.70;99.90
46730;DHT22;32476;50.002;11.854;2023-08-07T05:23:37;9.80;99.90
46730;DHT22;32476;50.002;11.854;2023-08-07T05:26:05;9.80;99.90
46730;DHT22;32476;50.002;11.854;2023-08-07T05:28:31;9.80;99.90
46730;DHT22;32476;50.002;11.854;2023-08-07T05:30:57;9.80;99.90
46730;DHT22;32476;50.002;11.854;2023-08-07T05:33:24;9.70;99.90
46730;DHT22;32476;50.002;11.854;2023-08-07T05:35:53;9.70;99.90
46730;DHT22;32476;50.002;11.854;2023-08-07T05:38:21;9.80;99.90
46730;DHT22;32476;50.002;11.854;2023-08-07T05:40:48;9.80;99.90
46730;DHT22;32476;50.002;11.854;2023-08-07T05:43:14;9.70;99.90
46730;DHT22;32476;50.002;11.854;2023-08-07T05:45:42;9.70;99.90
46730;DHT22;32476;50.002;11.854;2023-08-07T05:48:12;9.70;99.90
46730;DHT22;32476;50.002;11.854;2023-08-07T05:50:38;9.70;99.90
46730;DHT22;32476;50.002;11.854;2023-08-07T05:53:04;9.70;99.90
46730;DHT22;32476;50.002;11.854;2023-08-07T05:55:31;9.80;99.90
46730;DHT22;32476;50.002;11.854;2023-08-07T05:57:58;9.80;99.90
46730;DHT22;32476;50.002;11.854;2023-08-07T06:00:26;9.80;99.90
46730;DHT22;32476;50.002;11.854;2023-08-07T06:02:55;9.80;99.90
46730;DHT22;32476;50.002;11.854;2023-08-07T06:05:21;9.70;99.90
46730;DHT22;32476;50.002;11.854;2023-08-07T06:07:47;9.80;99.90
46730;DHT22;32476;50.002;11.854;2023-08-07T06:10:15;9.80;99.90
46730;DHT22;32476;50.002;11.854;2023-08-07T06:12:41;9.70;99.90
46730;DHT22;32476;50.002;11.854;2023-08-07T06:15:08;9.70;99.90
46730;DHT22;32476;50.002;11.854;2023-08-07T06:17:36;9.70;99.90
46730;DHT22;32476;50.002;11.854;2023-08-07T06:20:02;9.70;99.90
46730;DHT22;32476;50.002;11.854;2023-08-07T06:22:30;9.70;99.90
46730;DHT22;32476;50.002;11.854;2023-08-07T06:24:57;9.70;99.90
46730;DHT22;32476;50.002;11.854;2023-08-07T06:27:23;9.60;99.90
46730;DHT22;32476;50.002;11.854;2023-08-07T06:29:49;9.60;99.90
46730;DHT22;32476;50.002;11.854;2023-08-07T06:32:17;9.60;99.90
46730;DHT22;32476;50.002;11.854;2023-08-07T06:34:44;9.60;99.90
46730;DHT22;32476;50.002;11.854;2023-08-07T06:37:10;9.60;99.90
46730;DHT22;32476;50.002;11.854;2023-08-07T06:39:37;9.60;99.90
46730;DHT22;32476;50.002;11.854;2023-08-07T06:42:03;9.60;99.90
46730;DHT22;32476;50.002;11.854;2023-08-07T06:44:29;9.60;99.90
46730;DHT22;32476;50.002;11.854;2023-08-07T06:46:57;9.70;99.90
46730;DHT22;32476;50.002;11.854;2023-08-07T06:49:23;9.60;99.90
46730;DHT22;32476;50.002;11.854;2023-08-07T06:51:49;9.70;99.90
46730;DHT22;32476;50.002;11.854;2023-08-07T06:54:16;9.70;99.90
46730;DHT22;32476;50.002;11.854;2023-08-07T06:56:42;9.70;99.90
46730;DHT22;32476;50.002;11.854;2023-08-07T06:59:09;9.70;99.90
46730;DHT22;32476;50.002;11.854;2023-08-07T07:01:37;9.70;99.90
46730;DHT22;32476;50.002;11.854;2023-08-07T07:04:03;9.70;99.90
46730;DHT22;32476;50.002;11.854;2023-08-07T07:06:29;9.60;99.90
46730;DHT22;32476;50.002;11.854;2023-08-07T07:08:56;9.60;99.90
46730;DHT22;32476;50.002;11.854;2023-08-07T07:11:22;9.60;99.90
46730;DHT22;32476;50.002;11.854;2023-08-07T07:13:50;9.70;99.90
46730;DHT22;32476;50.002;11.854;2023-08-07T07:16:18;9.60;99.90
46730;DHT22;32476;50.002;11.854;2023-08-07T07:18:46;9.60;99.90
46730;DHT22;32476;50.002;11.854;2023-08-07T07:21:12;9.60;99.90
46730;DHT22;32476;50.002;11.854;2023-08-07T07:23:40;9.60;99.90
46730;DHT22;32476;50.002;11.854;2023-08-07T07:26:06;9.60;99.90
46730;DHT22;32476;50.002;11.854;2023-08-07T07:28:32;9.60;99.90
46730;DHT22;32476;50.002;11.854;2023-08-07T07:30:59;9.60;99.90
46730;DHT22;32476;50.002;11.854;2023-08-07T07:33:25;9.70;99.90
46730;DHT22;32476;50.002;11.854;2023-08-07T07:35:51;9.80;99.90
46730;DHT22;32476;50.002;11.854;2023-08-07T07:38:18;9.70;99.90
46730;DHT22;32476;50.002;11.854;2023-08-07T07:40:44;9.70;99.90
46730;DHT22;32476;50.002;11.854;2023-08-07T07:43:11;9.70;99.90
46730;DHT22;32476;50.002;11.854;2023-08-07T07:45:38;9.70;99.90
46730;DHT22;32476;50.002;11.854;2023-08-07T07:48:04;9.70;99.90
46730;DHT22;32476;50.002;11.854;2023-08-07T07:50:31;9.70;99.90
46730;DHT22;32476;50.002;11.854;2023-08-07T07:52:59;9.70;99.90
46730;DHT22;32476;50.002;11.854;2023-08-07T07:55:25;9.80;99.90
46730;DHT22;32476;50.002;11.854;2023-08-07T07:57:51;9.80;99.90
46730;DHT22;32476;50.002;11.854;2023-08-07T08:00:19;9.90;99.90
46730;DHT22;32476;50.002;11.854;2023-08-07T08:02:45;9.80;99.90
46730;DHT22;32476;50.002;11.854;2023-08-07T08:05:12;9.80;99.90
46730;DHT22;32476;50.002;11.854;2023-08-07T08:07:39;9.90;99.90
46730;DHT22;32476;50.002;11.854;2023-08-07T08:10:07;9.80;99.90
46730;DHT22;32476;50.002;11.854;2023-08-07T08:12:34;9.80;99.90
46730;DHT22;32476;50.002;11.854;2023-08-07T08:15:03;9.80;99.90
46730;DHT22;32476;50.002;11.854;2023-08-07T08:17:29;9.80;99.90
46730;DHT22;32476;50.002;11.854;2023-08-07T08:19:56;9.80;99.90
46730;DHT22;32476;50.002;11.854;2023-08-07T08:22:23;9.90;99.90
46730;DHT22;32476;50.002;11.854;2023-08-07T08:24:49;9.80;99.90
46730;DHT22;32476;50.002;11.854;2023-08-07T08:27:15;9.80;99.90
46730;DHT22;32476;50.002;11.854;2023-08-07T08:29:45;9.80;99.90
46730;DHT22;32476;50.002;11.854;2023-08-07T08:32:11;9.80;99.90
46730;DHT22;32476;50.002;11.854;2023-08-07T08:34:37;9.80;99.90
46730;DHT22;32476;50.002;11.854;2023-08-07T08:37:04;9.80;99.90
46730;DHT22;32476;50.002;11.854;2023-08-07T08:39:31;9.70;99.90
46730;DHT22;32476;50.002;11.854;2023-08-07T08:41:58;9.70;99.90
46730;DHT22;32476;50.002;11.854;2023-08-07T08:44:29;9.70;99.90
46730;DHT22;32476;50.002;11.854;2023-08-07T08:46:59;9.70;99.90
46730;DHT22;32476;50.002;11.854;2023-08-07T08:49:36;9.70;99.90
46730;DHT22;32476;50.002;11.854;2023-08-07T08:52:08;9.70;99.90
46730;DHT22;32476;50.002;11.854;2023-08-07T08:54:36;9.70;99.90
46730;DHT22;32476;50.002;11.854;2023-08-07T08:57:03;9.70;99.90
46730;DHT22;32476;50.002;11.854;2023-08-07T08:59:30;9.60;99.90
46730;DHT22;32476;50.002;11.854;2023-08-07T09:01:58;9.60;99.90
46730;DHT22;32476;50.002;11.854;2023-08-07T09:04:24;9.60;99.90
46730;DHT22;32476;50.002;11.854;2023-08-07T09:06:50;9.60;99.90
46730;DHT22;32476;50.002;11.854;2023-08-07T09:09:20;9.60;99.90
46730;DHT22;32476;50.002;11.854;2023-08-07T09:11:50;9.60;99.90
46730;DHT22;32476;50.002;11.854;2023-08-07T09:14:22;9.70;99.90
46730;DHT22;32476;50.002;11.854;2023-08-07T09:16:51;9.70;99.90
46730;DHT22;32476;50.002;11.854;2023-08-07T09:19:19;9.80;99.90
46730;DHT22;32476;50.002;11.854;2023-08-07T09:21:45;10.00;99.90
46730;DHT22;32476;50.002;11.854;2023-08-07T09:24:11;9.90;99.90
46730;DHT22;32476;50.002;11.854;2023-08-07T09:26:42;10.00;99.90
46730;DHT22;32476;50.002;11.854;2023-08-07T09:29:11;9.90;99.90
46730;DHT22;32476;50.002;11.854;2023-08-07T09:31:38;10.00;99.90
46730;DHT22;32476;50.002;11.854;2023-08-07T09:34:04;9.90;99.90
46730;DHT22;32476;50.002;11.854;2023-08-07T09:36:31;9.90;99.90
46730;DHT22;32476;50.002;11.854;2023-08-07T09:39:02;9.90;99.90
46730;DHT22;32476;50.002;11.854;2023-08-07T09:41:30;9.80;99.90
46730;DHT22;32476;50.002;11.854;2023-08-07T09:43:56;9.80;99.90
46730;DHT22;32476;50.002;11.854;2023-08-07T09:46:27;9.80;99.90
46730;DHT22;32476;50.002;11.854;2023-08-07T09:48:57;9.80;99.90
46730;DHT22;32476;50.002;11.854;2023-08-07T09:51:26;9.80;99.90
46730;DHT22;32476;50.002;11.854;2023-08-07T09:53:52;9.80;99.90
46730;DHT22;32476;50.002;11.854;2023-08-07T09:56:18;9.80;99.90
46730;DHT22;32476;50.002;11.854;2023-08-07T09:58:48;9.90;99.90
46730;DHT22;32476;50.002;11.854;2023-08-07T10:01:16;10.10;99.90
46730;DHT22;32476;50.002;11.854;2023-08-07T10:03:43;10.10;99.90
46730;DHT22;32476;50.002;11.854;2023-08-07T10:06:11;10.10;99.90
46730;DHT22;32476;50.002;11.854;2023-08-07T10:08:38;10.20;99.90
46730;DHT22;32476;50.002;11.854;2023-08-07T10:11:05;10.20;99.90
46730;DHT22;32476;50.002;11.854;2023-08-07T10:13:34;10.20;99.90
46730;DHT22;32476;50.002;11.854;2023-08-07T10:16:01;10.20;99.90
46730;DHT22;32476;50.002;11.854;2023-08-07T10:18:27;10.30;99.90
46730;DHT22;32476;50.002;11.854;2023-08-07T10:20:55;10.30;99.90
46730;DHT22;32476;50.002;11.854;2023-08-07T10:23:22;10.40;99.90
46730;DHT22;32476;50.002;11.854;2023-08-07T10:25:49;10.50;99.90
46730;DHT22;32476;50.002;11.854;2023-08-07T10:28:19;10.50;99.90
46730;DHT22;32476;50.002;11.854;2023-08-07T10:30:45;10.50;99.90
46730;DHT22;32476;50.002;11.854;2023-08-07T10:33:12;10.60;99.90
46730;DHT22;32476;50.002;11.854;2023-08-07T10:35:47;10.60;99.90
46730;DHT22;32476;50.002;11.854;2023-08-07T10:38:14;10.60;99.90
46730;DHT22;32476;50.002;11.854;2023-08-07T10:41:12;10.60;99.90
46730;DHT22;32476;50.002;11.854;2023-08-07T10:43:39;10.60;99.90
46730;DHT22;32476;50.002;11.854;2023-08-07T10:46:11;10.60;99.90
46730;DHT22;32476;50.002;11.854;2023-08-07T10:48:42;10.60;99.90
46730;DHT22;32476;50.002;11.854;2023-08-07T10:51:16;10.60;99.90
46730;DHT22;32476;50.002;11.854;2023-08-07T10:53:45;10.60;99.90
46730;DHT22;32476;50.002;11.854;2023-08-07T10:56:29;10.60;99.90
46730;DHT22;32476;50.002;11.854;2023-08-07T10:58:57;10.50;99.90
46730;DHT22;32476;50.002;11.854;2023-08-07T11:03:58;10.60;99.90
46730;DHT22;32476;50.002;11.854;2023-08-07T11:06:29;10.60;99.90
46730;DHT22;32476;50.002;11.854;2023-08-07T11:09:04;10.50;99.90
46730;DHT22;32476;50.002;11.854;2023-08-07T11:11:40;10.50;99.90
46730;DHT22;32476;50.002;11.854;2023-08-07T11:14:13;10.60;99.90
46730;DHT22;32476;50.002;11.854;2023-08-07T11:16:42;10.50;99.90
46730;DHT22;32476;50.002;11.854;2023-08-07T11:19:09;10.30;99.90
46730;DHT22;32476;50.002;11.854;2023-08-07T11:21:37;10.30;99.90
46730;DHT22;32476;50.002;11.854;2023-08-07T11:24:05;10.30;99.90
46730;DHT22;32476;50.002;11.854;2023-08-07T11:26:31;10.20;99.90
46730;DHT22;32476;50.002;11.854;2023-08-07T11:28:57;10.10;99.90
46730;DHT22;32476;50.002;11.854;2023-08-07T11:31:25;10.20;99.90
46730;DHT22;32476;50.002;11.854;2023-08-07T11:33:55;10.20;99.90
46730;DHT22;32476;50.002;11.854;2023-08-07T11:36:23;10.10;99.90
46730;DHT22;32476;50.002;11.854;2023-08-07T11:38:51;10.10;99.90
46730;DHT22;32476;50.002;11.854;2023-08-07T11:41:17;10.10;99.90
46730;DHT22;32476;50.002;11.854;2023-08-07T11:43:44;10.10;99.90
46730;DHT22;32476;50.002;11.854;2023-08-07T11:46:14;10.00;99.90
46730;DHT22;32476;50.002;11.854;2023-08-07T11:48:42;9.90;99.90
46730;DHT22;32476;50.002;11.854;2023-08-07T11:51:09;9.90;99.90
46730;DHT22;32476;50.002;11.854;2023-08-07T11:53:37;10.00;99.90
46730;DHT22;32476;50.002;11.854;2023-08-07T11:56:10;10.00;99.90
46730;DHT22;32476;50.002;11.854;2023-08-07T11:58:43;9.90;99.90
46730;DHT22;32476;50.002;11.854;2023-08-07T12:01:29;9.90;99.90
46730;DHT22;32476;50.002;11.854;2023-08-07T12:04:08;9.90;99.90
46730;DHT22;32476;50.002;11.854;2023-08-07T12:06:36;9.90;99.90
46730;DHT22;32476;50.002;11.854;2023-08-07T12:09:06;9.90;99.90
46730;DHT22;32476;50.002;11.854;2023-08-07T12:11:41;9.90;99.90
46730;DHT22;32476;50.002;11.854;2023-08-07T12:14:08;9.90;99.90
46730;DHT22;32476;50.002;11.854;2023-08-07T12:16:44;9.90;99.90
46730;DHT22;32476;50.002;11.854;2023-08-07T12:19:15;9.90;99.90
46730;DHT22;32476;50.002;11.854;2023-08-07T12:21:42;9.90;99.90
46730;DHT22;32476;50.002;11.854;2023-08-07T12:24:08;9.90;99.90
46730;DHT22;32476;50.002;11.854;2023-08-07T12:26:35;9.90;99.90
46730;DHT22;32476;50.002;11.854;2023-08-07T12:29:01;9.90;99.90
46730;DHT22;32476;50.002;11.854;2023-08-07T12:31:27;9.90;99.90
46730;DHT22;32476;50.002;11.854;2023-08-07T12:33:55;9.90;99.90
46730;DHT22;32476;50.002;11.854;2023-08-07T12:36:21;9.90;99.90
46730;DHT22;32476;50.002;11.854;2023-08-07T12:38:47;9.80;99.90
46730;DHT22;32476;50.002;11.854;2023-08-07T12:41:14;9.80;99.90
46730;DHT22;32476;50.002;11.854;2023-08-07T12:43:40;9.80;99.90
46730;DHT22;32476;50.002;11.854;2023-08-07T12:46:06;9.80;99.90
46730;DHT22;32476;50.002;11.854;2023-08-07T12:48:34;9.80;99.90
46730;DHT22;32476;50.002;11.854;2023-08-07T12:50:59;9.80;99.90
46730;DHT22;32476;50.002;11.854;2023-08-07T12:53:25;9.80;99.90
46730;DHT22;32476;50.002;11.854;2023-08-07T12:55:53;9.90;99.90
46730;DHT22;32476;50.002;11.854;2023-08-07T12:58:19;9.90;99.90
46730;DHT22;32476;50.002;11.854;2023-08-07T13:00:48;9.90;99.90
46730;DHT22;32476;50.002;11.854;2023-08-07T13:03:16;9.90;99.90
46730;DHT22;32476;50.002;11.854;2023-08-07T13:05:42;9.90;99.90
46730;DHT22;32476;50.002;11.854;2023-08-07T13:08:07;9.90;99.90
46730;DHT22;32476;50.002;11.854;2023-08-07T13:10:35;9.90;99.90
46730;DHT22;32476;50.002;11.854;2023-08-07T13:13:01;9.90;99.90
46730;DHT22;32476;50.002;11.854;2023-08-07T13:15:27;9.80;99.90
46730;DHT22;32476;50.002;11.854;2023-08-07T13:17:55;9.80;99.90
46730;DHT22;32476;50.002;11.854;2023-08-07T13:20:21;9.80;99.90
46730;DHT22;32476;50.002;11.854;2023-08-07T13:22:47;9.80;99.90
46730;DHT22;32476;50.002;11.854;2023-08-07T13:25:14;9.80;99.90
46730;DHT22;32476;50.002;11.854;2023-08-07T13:27:41;9.90;99.90
46730;DHT22;32476;50.002;11.854;2023-08-07T13:30:07;9.90;99.90
46730;DHT22;32476;50.002;11.854;2023-08-07T13:32:36;9.90;99.90
46730;DHT22;32476;50.002;11.854;2023-08-07T13:35:02;9.90;99.90
46730;DHT22;32476;50.002;11.854;2023-08-07T13:37:29;9.90;99.90
46730;DHT22;32476;50.002;11.854;2023-08-07T13:39:56;9.90;99.90
46730;DHT22;32476;50.002;11.854;2023-08-07T13:42:24;9.90;99.90
46730;DHT22;32476;50.002;11.854;2023-08-07T13:44:52;9.90;99.90
46730;DHT22;32476;50.002;11.854;2023-08-07T13:47:20;9.90;99.90
46730;DHT22;32476;50.002;11.854;2023-08-07T13:49:46;9.90;99.90
46730;DHT22;32476;50.002;11.854;2023-08-07T13:52:13;9.90;99.90
46730;DHT22;32476;50.002;11.854;2023-08-07T13:54:40;9.90;99.90
46730;DHT22;32476;50.002;11.854;2023-08-07T13:57:06;9.90;99.90
46730;DHT22;32476;50.002;11.854;2023-08-07T13:59:32;9.90;99.90
46730;DHT22;32476;50.002;11.854;2023-08-07T14:02:00;9.90;99.90
46730;DHT22;32476;50.002;11.854;2023-08-07T14:04:26;9.90;99.90
46730;DHT22;32476;50.002;11.854;2023-08-07T14:06:52;9.90;99.90
46730;DHT22;32476;50.002;11.854;2023-08-07T14:09:20;9.90;99.90
46730;DHT22;32476;50.002;11.854;2023-08-07T14:11:48;9.90;99.90
46730;DHT22;32476;50.002;11.854;2023-08-07T14:14:14;9.90;99.90
46730;DHT22;32476;50.002;11.854;2023-08-07T14:16:42;9.90;99.90
46730;DHT22;32476;50.002;11.854;2023-08-07T14:19:08;9.90;99.90
46730;DHT22;32476;50.002;11.854;2023-08-07T14:21:34;10.00;99.90
46730;DHT22;32476;50.002;11.854;2023-08-07T14:24:02;10.00;99.90
46730;DHT22;32476;50.002;11.854;2023-08-07T14:26:28;10.00;99.90
46730;DHT22;32476;50.002;11.854;2023-08-07T14:28:54;10.10;99.90
46730;DHT22;32476;50.002;11.854;2023-08-07T14:31:22;10.10;99.90
46730;DHT22;32476;50.002;11.854;2023-08-07T14:33:48;10.10;99.90
46730;DHT22;32476;50.002;11.854;2023-08-07T14:36:14;10.10;99.90
46730;DHT22;32476;50.002;11.854;2023-08-07T14:38:42;10.10;99.90
46730;DHT22;32476;50.002;11.854;2023-08-07T14:41:08;10.10;99.90
46730;DHT22;32476;50.002;11.854;2023-08-07T14:43:34;10.10;99.90
46730;DHT22;32476;50.002;11.854;2023-08-07T14:46:02;10.10;99.90
46730;DHT22;32476;50.002;11.854;2023-08-07T14:48:28;10.10;99.90
46730;DHT22;32476;50.002;11.854;2023-08-07T14:50:54;10.20;99.90
46730;DHT22;32476;50.002;11.854;2023-08-07T14:53:23;10.10;99.90
46730;DHT22;32476;50.002;11.854;2023-08-07T14:55:50;10.20;99.90
46730;DHT22;32476;50.002;11.854;2023-08-07T14:58:16;10.20;99.90
46730;DHT22;32476;50.002;11.854;2023-08-07T15:00:44;10.20;99.90
46730;DHT22;32476;50.002;11.854;2023-08-07T15:03:11;10.20;99.90
46730;DHT22;32476;50.002;11.854;2023-08-07T15:05:37;10.20;99.90
46730;DHT22;32476;50.002;11.854;2023-08-07T15:08:04;10.10;99.90
46730;DHT22;32476;50.002;11.854;2023-08-07T15:10:30;10.10;99.90
46730;DHT22;32476;50.002;11.854;2023-08-07T15:12:56;10.20;99.90
46730;DHT22;32476;50.002;11.854;2023-08-07T15:15:24;10.20;99.90
46730;DHT22;32476;50.002;11.854;2023-08-07T15:17:50;10.10;99.90
46730;DHT22;32476;50.002;11.854;2023-08-07T15:20:16;10.10;99.90
46730;DHT22;32476;50.002;11.854;2023-08-07T15:22:46;10.20;99.90
46730;DHT22;32476;50.002;11.854;2023-08-07T15:25:13;10.10;99.90
46730;DHT22;32476;50.002;11.854;2023-08-07T15:27:39;10.10;99.90
46730;DHT22;32476;50.002;11.854;2023-08-07T15:30:07;10.20;99.90
46730;DHT22;32476;50.002;11.854;2023-08-07T15:32:33;10.10;99.90
46730;DHT22;32476;50.002;11.854;2023-08-07T15:35:00;10.20;99.90
46730;DHT22;32476;50.002;11.854;2023-08-07T15:37:27;10.20;99.90
46730;DHT22;32476;50.002;11.854;2023-08-07T15:39:53;10.20;99.90
46730;DHT22;32476;50.002;11.854;2023-08-07T15:42:19;10.20;99.90